createdAt,value
2022-09-26T00:01:43.162Z,11.56
2022-09-26T00:04:22.978Z,11.57
2022-09-26T00:06:53.959Z,11.55
2022-09-26T00:09:24.110Z,11.56
2022-09-26T00:11:53.442Z,11.57
2022-09-26T00:14:25.521Z,11.57
2022-09-26T00:16:53.996Z,11.58
2022-09-26T00:19:23.110Z,11.58
2022-09-26T00:21:51.702Z,11.57
2022-09-26T00:24:20.517Z,11.57
2022-09-26T00:26:48.738Z,11.56
2022-09-26T00:29:17.064Z,11.54
2022-09-26T00:31:47.538Z,11.52
2022-09-26T00:34:18.852Z,11.46
2022-09-26T00:36:47.123Z,11.41
2022-09-26T00:39:16.759Z,11.31
2022-09-26T00:41:45.807Z,11.22
2022-09-26T00:44:32.746Z,11.14
2022-09-26T00:47:01.547Z,11.09
2022-09-26T00:49:36.602Z,11.08
2022-09-26T00:52:16.125Z,11.09
2022-09-26T00:54:48.817Z,11.10
2022-09-26T00:57:21.860Z,11.11
2022-09-26T00:59:57.610Z,11.10
2022-09-26T01:02:29.034Z,11.11
2022-09-26T01:04:59.500Z,11.14
2022-09-26T01:07:30.026Z,11.13
2022-09-26T01:09:59.436Z,11.11
2022-09-26T01:12:27.730Z,11.11
2022-09-26T01:14:57.279Z,11.12
2022-09-26T01:17:27.145Z,11.12
2022-09-26T01:20:21.307Z,11.11
2022-09-26T01:23:08.099Z,11.11
2022-09-26T01:26:01.283Z,11.09
2022-09-26T01:28:32.384Z,11.09
2022-09-26T01:31:12.461Z,11.06
2022-09-26T01:33:59.529Z,11.02
2022-09-26T01:36:52.681Z,10.98
2022-09-26T01:39:38.383Z,10.88
2022-09-26T01:42:31.280Z,10.86
2022-09-26T01:45:18.745Z,10.88
2022-09-26T01:48:10.114Z,10.91
2022-09-26T01:50:50.813Z,10.93
2022-09-26T01:53:39.177Z,10.92
2022-09-26T01:56:14.873Z,10.92
2022-09-26T01:58:50.096Z,10.89
2022-09-26T02:01:23.003Z,10.87
2022-09-26T02:03:58.980Z,10.84
2022-09-26T02:06:42.932Z,10.85
2022-09-26T02:09:17.202Z,10.85
2022-09-26T02:11:50.570Z,10.84
2022-09-26T02:14:32.358Z,10.87
2022-09-26T02:17:23.041Z,10.87
2022-09-26T02:20:00.955Z,10.85
2022-09-26T02:22:34.108Z,10.82
2022-09-26T02:25:04.551Z,10.80
2022-09-26T02:27:33.321Z,10.80
2022-09-26T02:30:01.826Z,10.82
2022-09-26T02:32:32.958Z,10.84
2022-09-26T02:35:22.566Z,10.82
2022-09-26T02:37:51.106Z,10.83
2022-09-26T02:40:23.272Z,10.84
2022-09-26T02:43:05.509Z,10.83
2022-09-26T02:46:15.831Z,10.82
2022-09-26T02:49:10.298Z,10.78
2022-09-26T02:52:03.473Z,10.69
2022-09-26T02:54:51.771Z,10.64
2022-09-26T02:57:40.726Z,10.59
2022-09-26T03:00:16.374Z,10.55
2022-09-26T03:03:06.064Z,10.52
2022-09-26T03:05:38.920Z,10.52
2022-09-26T03:08:13.365Z,10.55
2022-09-26T03:10:42.814Z,10.56
2022-09-26T03:13:13.413Z,10.57
2022-09-26T03:15:46.295Z,10.59
2022-09-26T03:18:22.773Z,10.62
2022-09-26T03:20:54.381Z,10.63
2022-09-26T03:23:25.614Z,10.63
2022-09-26T03:26:14.030Z,10.64
2022-09-26T03:28:52.195Z,10.67
2022-09-26T03:31:25.596Z,10.72
2022-09-26T03:34:01.146Z,10.78
2022-09-26T03:36:30.367Z,10.82
2022-09-26T03:38:58.582Z,10.82
2022-09-26T03:41:45.607Z,10.83
2022-09-26T03:44:21.799Z,10.83
2022-09-26T03:47:05.160Z,10.82
2022-09-26T03:49:37.016Z,10.83
2022-09-26T03:52:07.488Z,10.86
2022-09-26T03:54:35.711Z,10.89
2022-09-26T03:57:04.484Z,10.92
2022-09-26T03:59:34.293Z,10.95
2022-09-26T04:02:02.883Z,10.96
2022-09-26T04:04:32.411Z,10.90
2022-09-26T04:07:00.553Z,10.83
2022-09-26T04:09:28.958Z,10.76
2022-09-26T04:11:57.239Z,10.77
2022-09-26T04:14:26.606Z,10.76
2022-09-26T04:16:58.540Z,10.77
2022-09-26T04:19:34.032Z,10.81
2022-09-26T04:22:03.774Z,10.87
2022-09-26T04:24:36.472Z,10.90
2022-09-26T04:27:08.703Z,10.95
2022-09-26T04:29:37.024Z,10.94
2022-09-26T04:32:16.174Z,10.94
2022-09-26T04:35:13.809Z,10.93
2022-09-26T04:37:42.085Z,10.93
2022-09-26T04:40:11.527Z,10.99
2022-09-26T04:42:45.554Z,11.02
2022-09-26T04:46:17.202Z,11.03
2022-09-26T04:49:30.590Z,11.04
2022-09-26T04:52:25.647Z,11.07
2022-09-26T04:55:09.920Z,11.10
2022-09-26T05:00:52.618Z,11.14
2022-09-26T05:03:47.320Z,11.15
2022-09-26T05:06:20.666Z,11.17
2022-09-26T05:08:54.946Z,11.15
2022-09-26T05:11:53.639Z,11.13
2022-09-26T05:14:21.912Z,11.13
2022-09-26T05:16:51.395Z,11.11
2022-09-26T05:19:24.447Z,11.15
2022-09-26T05:22:22.427Z,11.23
2022-09-26T05:25:41.267Z,11.32
2022-09-26T05:28:11.702Z,11.43
2022-09-26T05:30:46.413Z,11.49
2022-09-26T05:33:42.872Z,11.58
2022-09-26T05:36:21.459Z,11.69
2022-09-26T05:39:01.993Z,11.79
2022-09-26T05:41:33.007Z,11.90
2022-09-26T05:44:05.152Z,11.99
2022-09-26T05:46:37.445Z,12.11
2022-09-26T05:49:11.209Z,12.21
2022-09-26T05:51:41.493Z,12.28
2022-09-26T05:54:10.940Z,12.32
2022-09-26T05:56:39.458Z,12.43
2022-09-26T05:59:27.875Z,12.54
2022-09-26T06:02:31.659Z,12.62
2022-09-26T06:07:08.072Z,12.69
2022-09-26T06:09:40.974Z,12.82
2022-09-26T06:12:26.063Z,12.96
2022-09-26T06:14:55.809Z,13.09
2022-09-26T06:17:25.319Z,13.18
2022-09-26T06:19:55.114Z,13.23
2022-09-26T06:22:25.608Z,13.28
2022-09-26T06:24:54.578Z,13.34
2022-09-26T06:27:24.368Z,13.38
2022-09-26T06:29:58.640Z,13.42
2022-09-26T06:32:31.847Z,13.49
2022-09-26T06:35:18.101Z,13.54
2022-09-26T06:38:01.154Z,13.56
2022-09-26T06:40:57.294Z,13.59
2022-09-26T06:48:24.292Z,13.64
2022-09-26T07:05:47.289Z,13.53
2022-09-26T07:08:57.744Z,13.51
2022-09-26T07:11:56.615Z,13.53
2022-09-26T07:14:26.601Z,13.58
2022-09-26T07:17:04.996Z,13.65
2022-09-26T07:19:55.455Z,13.76
2022-09-26T07:22:46.176Z,13.86
2022-09-26T07:25:15.687Z,13.99
2022-09-26T07:27:52.072Z,14.15
2022-09-26T07:30:24.894Z,14.26
2022-09-26T07:33:07.158Z,14.39
2022-09-26T07:35:45.112Z,14.50
2022-09-26T07:38:15.336Z,14.62
2022-09-26T07:40:44.175Z,14.74
2022-09-26T07:43:20.224Z,14.83
2022-09-26T07:46:13.432Z,14.88
2022-09-26T07:49:07.880Z,14.87
2022-09-26T07:52:02.014Z,14.88
2022-09-26T07:55:02.880Z,14.91
2022-09-26T07:58:08.360Z,14.95
2022-09-26T08:01:03.142Z,14.98
2022-09-26T08:03:59.725Z,15.04
2022-09-26T08:07:00.719Z,15.07
2022-09-26T08:09:38.189Z,15.11
2022-09-26T08:12:38.695Z,15.12
2022-09-26T08:15:45.671Z,15.01
2022-09-26T08:18:36.876Z,14.89
2022-09-26T08:21:15.689Z,14.85
2022-09-26T08:24:02.505Z,14.85
2022-09-26T08:27:02.758Z,14.91
2022-09-26T08:29:42.629Z,14.98
2022-09-26T08:32:11.376Z,15.02
2022-09-26T08:34:41.409Z,15.09
2022-09-26T08:37:36.909Z,15.16
2022-09-26T08:40:33.974Z,15.19
2022-09-26T08:43:41.618Z,15.34
2022-09-26T08:46:43.974Z,15.48
2022-09-26T08:50:04.432Z,15.45
2022-09-26T08:52:57.003Z,15.46
2022-09-26T08:55:41.008Z,15.50
2022-09-26T08:58:25.337Z,15.45
2022-09-26T09:01:06.006Z,15.25
2022-09-26T09:04:02.145Z,15.15
2022-09-26T09:06:38.084Z,15.07
2022-09-26T09:09:08.178Z,14.97
2022-09-26T09:12:45.345Z,14.88
2022-09-26T09:25:01.461Z,14.53
2022-09-26T09:32:52.599Z,14.50
2022-09-26T09:43:19.758Z,14.30
2022-09-26T09:46:39.343Z,14.24
2022-09-26T09:49:30.249Z,14.16
2022-09-26T09:52:28.913Z,14.10
2022-09-26T09:55:41.784Z,14.06
2022-09-26T09:58:37.232Z,14.01
2022-09-26T10:01:39.487Z,13.87
2022-09-26T10:04:58.946Z,13.77
2022-09-26T10:07:32.593Z,13.73
2022-09-26T10:10:52.042Z,13.72
2022-09-26T10:13:45.663Z,13.66
2022-09-26T10:17:13.551Z,13.71
2022-09-26T10:20:12.928Z,13.80
2022-09-26T10:23:36.077Z,13.96
2022-09-26T10:26:14.390Z,14.16
2022-09-26T10:29:00.916Z,14.35
2022-09-26T10:31:42.321Z,14.52
2022-09-26T10:34:31.898Z,14.56
2022-09-26T10:37:35.367Z,14.48
2022-09-26T10:40:53.730Z,14.39
2022-09-26T10:43:31.329Z,14.26
2022-09-26T10:46:32.392Z,14.24
2022-09-26T10:49:31.818Z,14.20
2022-09-26T10:52:08.899Z,14.16
2022-09-26T10:54:43.195Z,14.10
2022-09-26T10:57:25.115Z,14.00
2022-09-26T10:59:57.506Z,13.86
2022-09-26T11:02:28.591Z,13.72
2022-09-26T11:05:22.436Z,13.60
2022-09-26T11:08:19.135Z,13.59
2022-09-26T11:11:14.146Z,13.66
2022-09-26T11:14:02.261Z,13.69
2022-09-26T11:16:49.274Z,13.75
2022-09-26T11:19:42.799Z,13.80
2022-09-26T11:22:34.434Z,13.74
2022-09-26T11:25:12.072Z,13.77
2022-09-26T11:27:46.872Z,13.80
2022-09-26T11:30:24.041Z,13.75
2022-09-26T11:33:00.514Z,13.69
2022-09-26T11:35:58.941Z,13.67
2022-09-26T11:38:47.445Z,13.68
2022-09-26T11:41:48.980Z,13.69
2022-09-26T11:44:32.480Z,13.78
2022-09-26T11:47:53.060Z,13.80
2022-09-26T11:50:48.169Z,13.74
2022-09-26T11:53:40.737Z,13.76
2022-09-26T11:56:44.614Z,13.82
2022-09-26T11:59:44.009Z,14.04
2022-09-26T12:02:41.017Z,14.39
2022-09-26T12:05:38.501Z,14.71
2022-09-26T12:08:36.545Z,14.89
2022-09-26T12:11:37.344Z,15.09
2022-09-26T12:14:24.135Z,15.16
2022-09-26T12:17:06.471Z,15.27
2022-09-26T12:19:42.298Z,15.46
2022-09-26T12:22:29.975Z,15.71
2022-09-26T12:24:58.112Z,15.82
2022-09-26T12:27:50.070Z,15.92
2022-09-26T12:30:32.509Z,16.06
2022-09-26T12:33:06.611Z,16.28
2022-09-26T12:35:37.353Z,16.46
2022-09-26T12:38:32.590Z,16.47
2022-09-26T12:41:23.303Z,16.44
2022-09-26T12:44:28.595Z,16.52
2022-09-26T12:47:24.792Z,16.52
2022-09-26T12:50:05.414Z,16.58
2022-09-26T12:52:44.355Z,16.59
2022-09-26T12:55:34.489Z,16.73
2022-09-26T12:58:25.105Z,16.82
2022-09-26T13:00:56.746Z,16.75
2022-09-26T13:03:36.947Z,16.65
2022-09-26T13:06:29.627Z,16.45
2022-09-26T13:09:16.183Z,16.13
2022-09-26T13:12:01.935Z,15.92
2022-09-26T13:14:46.861Z,15.80
2022-09-26T13:17:17.975Z,15.69
2022-09-26T13:19:51.557Z,15.58
2022-09-26T13:22:46.017Z,15.59
2022-09-26T13:25:29.682Z,15.56
2022-09-26T13:28:10.210Z,15.56
2022-09-26T13:30:44.826Z,15.57
2022-09-26T13:33:22.486Z,15.58
2022-09-26T13:35:53.784Z,15.57
2022-09-26T13:38:38.160Z,15.51
2022-09-26T13:41:18.387Z,15.42
2022-09-26T13:43:47.570Z,15.36
2022-09-26T13:46:31.052Z,15.39
2022-09-26T13:49:02.274Z,15.43
2022-09-26T13:51:49.887Z,15.50
2022-09-26T13:54:44.750Z,15.57
2022-09-26T13:57:47.079Z,15.64
2022-09-26T14:00:24.289Z,15.74
2022-09-26T14:03:23.490Z,15.82
2022-09-26T14:06:06.852Z,15.90
2022-09-26T14:08:55.569Z,16.01
2022-09-26T14:11:30.716Z,16.04
2022-09-26T14:14:21.587Z,16.03
2022-09-26T14:17:01.746Z,16.04
2022-09-26T14:19:46.593Z,16.06
2022-09-26T14:22:24.302Z,16.08
2022-09-26T14:24:53.688Z,16.08
2022-09-26T14:27:25.507Z,16.07
2022-09-26T14:30:13.898Z,16.06
2022-09-26T14:32:46.958Z,16.05
2022-09-26T14:35:21.361Z,16.01
2022-09-26T14:37:52.082Z,15.93
2022-09-26T14:40:30.298Z,15.89
2022-09-26T14:43:18.721Z,15.83
2022-09-26T14:46:15.178Z,15.78
2022-09-26T14:48:44.810Z,15.73
2022-09-26T14:51:15.888Z,15.68
2022-09-26T14:54:16.130Z,15.63
2022-09-26T14:56:51.398Z,15.50
2022-09-26T14:59:19.653Z,15.45
2022-09-26T15:01:48.202Z,15.40
2022-09-26T15:04:26.060Z,15.35
2022-09-26T15:07:03.045Z,15.31
2022-09-26T15:09:45.235Z,15.33
2022-09-26T15:12:18.489Z,15.31
2022-09-26T15:14:55.774Z,15.26
2022-09-26T15:17:31.803Z,15.22
2022-09-26T15:20:03.014Z,15.20
2022-09-26T15:22:31.594Z,15.15
2022-09-26T15:25:21.427Z,15.12
2022-09-26T15:27:55.779Z,15.07
2022-09-26T15:30:32.699Z,15.09
2022-09-26T15:33:06.111Z,15.10
2022-09-26T15:35:34.452Z,15.10
2022-09-26T15:38:09.699Z,15.07
2022-09-26T15:40:38.460Z,15.08
2022-09-26T15:43:08.135Z,15.08
2022-09-26T15:45:49.582Z,15.06
2022-09-26T15:48:34.475Z,15.05
2022-09-26T15:51:25.826Z,15.02
2022-09-26T15:53:58.125Z,14.93
2022-09-26T15:56:47.638Z,14.93
2022-09-26T15:59:21.353Z,14.92
2022-09-26T16:01:50.640Z,14.89
2022-09-26T16:04:27.494Z,14.84
2022-09-26T16:07:14.528Z,14.83
2022-09-26T16:09:47.149Z,14.86
2022-09-26T16:12:15.564Z,14.86
2022-09-26T16:14:54.958Z,14.86
2022-09-26T16:17:40.327Z,14.88
2022-09-26T16:20:17.529Z,14.88
2022-09-26T16:22:46.587Z,14.86
2022-09-26T16:25:20.852Z,14.88
2022-09-26T16:28:00.995Z,14.90
2022-09-26T16:30:32.225Z,14.91
2022-09-26T16:33:03.974Z,14.91
2022-09-26T16:35:35.533Z,14.86
2022-09-26T16:38:25.874Z,14.85
2022-09-26T16:40:57.844Z,14.83
2022-09-26T16:43:29.614Z,14.80
2022-09-26T16:46:18.004Z,14.78
2022-09-26T16:48:49.728Z,14.77
2022-09-26T16:51:19.606Z,14.76
2022-09-26T16:53:53.567Z,14.71
2022-09-26T16:56:24.514Z,14.67
2022-09-26T16:58:59.011Z,14.67
2022-09-26T17:01:45.596Z,14.68
2022-09-26T17:04:19.015Z,14.63
2022-09-26T17:06:47.986Z,14.62
2022-09-26T17:09:30.708Z,14.62
2022-09-26T17:12:13.802Z,14.61
2022-09-26T17:14:43.625Z,14.61
2022-09-26T17:17:21.870Z,14.60
2022-09-26T17:19:56.767Z,14.61
2022-09-26T17:22:28.326Z,14.62
2022-09-26T17:24:58.204Z,14.65
2022-09-26T17:27:33.472Z,14.68
2022-09-26T17:30:05.155Z,14.70
2022-09-26T17:32:44.276Z,14.71
2022-09-26T17:35:19.520Z,14.71
2022-09-26T17:37:47.892Z,14.68
2022-09-26T17:40:24.377Z,14.70
2022-09-26T17:42:57.479Z,14.72
2022-09-26T17:45:40.337Z,14.71
2022-09-26T17:48:15.861Z,14.71
2022-09-26T17:50:44.167Z,14.68
2022-09-26T17:53:20.642Z,14.62
2022-09-26T17:55:49.384Z,14.57
2022-09-26T17:58:18.842Z,14.55
2022-09-26T18:00:50.269Z,14.51
2022-09-26T18:03:25.053Z,14.48
2022-09-26T18:05:54.212Z,14.47
2022-09-26T18:08:29.498Z,14.47
2022-09-26T18:11:02.168Z,14.48
2022-09-26T18:13:33.921Z,14.46
2022-09-26T18:16:03.386Z,14.41
2022-09-26T18:18:33.210Z,14.36
2022-09-26T18:21:05.317Z,14.31
2022-09-26T18:23:42.735Z,14.25
2022-09-26T18:26:29.317Z,14.22
2022-09-26T18:29:02.540Z,14.18
2022-09-26T18:31:33.285Z,14.16
2022-09-26T18:34:03.306Z,14.20
2022-09-26T18:36:33.405Z,14.20
2022-09-26T18:39:01.954Z,14.21
2022-09-26T18:41:30.518Z,14.23
2022-09-26T18:44:00.912Z,14.24
2022-09-26T18:46:30.243Z,14.21
2022-09-26T18:49:00.111Z,14.23
2022-09-26T18:51:28.997Z,14.26
2022-09-26T18:53:57.161Z,14.30
2022-09-26T18:56:43.868Z,14.34
2022-09-26T18:59:13.390Z,14.35
2022-09-26T19:01:43.010Z,14.38
2022-09-26T19:04:17.874Z,14.38
2022-09-26T19:06:49.736Z,14.37
2022-09-26T19:09:22.826Z,14.37
2022-09-26T19:11:51.074Z,14.35
2022-09-26T19:14:28.653Z,14.37
2022-09-26T19:16:57.802Z,14.41
2022-09-26T19:19:28.698Z,14.44
2022-09-26T19:21:59.852Z,14.47
2022-09-26T19:24:28.041Z,14.45
2022-09-26T19:27:03.630Z,14.48
2022-09-26T19:29:43.752Z,14.50
2022-09-26T19:32:24.310Z,14.51
2022-09-26T19:34:57.377Z,14.54
2022-09-26T19:37:25.710Z,14.55
2022-09-26T19:39:54.442Z,14.54
2022-09-26T19:42:22.641Z,14.55
2022-09-26T19:44:51.443Z,14.55
2022-09-26T19:47:23.164Z,14.55
2022-09-26T19:49:52.930Z,14.55
2022-09-26T19:52:22.279Z,14.53
2022-09-26T19:54:50.674Z,14.52
2022-09-26T19:57:22.155Z,14.50
2022-09-26T19:59:51.103Z,14.50
2022-09-26T20:02:24.559Z,14.52
2022-09-26T20:04:52.941Z,14.52
2022-09-26T20:07:21.158Z,14.50
2022-09-26T20:09:49.664Z,14.49
2022-09-26T20:12:17.989Z,14.48
2022-09-26T20:14:46.159Z,14.46
2022-09-26T20:17:21.183Z,14.46
2022-09-26T20:19:50.800Z,14.46
2022-09-26T20:22:22.932Z,14.43
2022-09-26T20:24:55.606Z,14.45
2022-09-26T20:27:28.236Z,14.50
2022-09-26T20:30:16.078Z,14.49
2022-09-26T20:32:44.417Z,14.43
2022-09-26T20:35:15.522Z,14.35
2022-09-26T20:37:44.958Z,14.28
2022-09-26T20:40:21.099Z,14.21
2022-09-26T20:42:57.182Z,14.11
2022-09-26T20:45:39.546Z,13.98
2022-09-26T20:48:22.944Z,13.94
2022-09-26T20:50:51.567Z,13.86
2022-09-26T20:53:21.933Z,13.85
2022-09-26T20:55:51.093Z,13.78
2022-09-26T20:58:19.610Z,13.75
2022-09-26T21:00:48.416Z,13.78
2022-09-26T21:03:20.010Z,13.83
2022-09-26T21:05:48.304Z,13.86
2022-09-26T21:08:22.280Z,13.90
2022-09-26T21:10:50.495Z,13.95
2022-09-26T21:13:18.624Z,13.98
2022-09-26T21:15:46.867Z,13.96
2022-09-26T21:18:28.377Z,13.90
2022-09-26T21:21:07.046Z,13.86
2022-09-26T21:23:54.443Z,13.91
2022-09-26T21:26:25.581Z,13.93
2022-09-26T21:28:55.756Z,13.93
2022-09-26T21:31:33.921Z,13.94
2022-09-26T21:34:03.564Z,13.91
2022-09-26T21:36:38.526Z,13.86
2022-09-26T21:39:06.938Z,13.84
2022-09-26T21:41:36.361Z,13.84
2022-09-26T21:44:09.077Z,13.80
2022-09-26T21:46:37.342Z,13.74
2022-09-26T21:49:05.685Z,13.66
2022-09-26T21:51:35.868Z,13.61
2022-09-26T21:54:09.773Z,13.55
2022-09-26T21:56:50.219Z,13.48
2022-09-26T21:59:21.596Z,13.45
2022-09-26T22:01:50.038Z,13.43
2022-09-26T22:04:20.926Z,13.37
2022-09-26T22:06:49.172Z,13.33
2022-09-26T22:09:17.422Z,13.30
2022-09-26T22:11:45.754Z,13.27
2022-09-26T22:14:14.088Z,13.24
2022-09-26T22:16:42.351Z,13.22
2022-09-26T22:19:10.765Z,13.21
2022-09-26T22:21:39.036Z,13.22
2022-09-26T22:24:07.255Z,13.23
2022-09-26T22:26:35.614Z,13.24
2022-09-26T22:29:04.349Z,13.24
2022-09-26T22:31:32.647Z,13.26
2022-09-26T22:34:00.857Z,13.25
2022-09-26T22:36:29.006Z,13.23
2022-09-26T22:38:57.238Z,13.21
2022-09-26T22:41:25.416Z,13.21
2022-09-26T22:43:53.662Z,13.22
2022-09-26T22:46:21.972Z,13.22
2022-09-26T22:48:50.654Z,13.21
2022-09-26T22:51:18.858Z,13.19
2022-09-26T22:53:47.165Z,13.16
2022-09-26T22:56:15.756Z,13.12
2022-09-26T22:58:47.148Z,13.09
2022-09-26T23:01:22.575Z,13.07
2022-09-26T23:03:54.910Z,13.07
2022-09-26T23:06:23.735Z,13.06
2022-09-26T23:08:52.708Z,13.06
2022-09-26T23:11:22.961Z,13.06
2022-09-26T23:13:52.712Z,13.06
2022-09-26T23:16:23.571Z,13.08
2022-09-26T23:18:52.338Z,13.09
2022-09-26T23:21:26.198Z,13.11
2022-09-26T23:23:56.460Z,13.11
2022-09-26T23:26:31.901Z,13.12
2022-09-26T23:29:00.496Z,13.14
2022-09-26T23:31:29.519Z,13.16
2022-09-26T23:33:58.088Z,13.17
2022-09-26T23:36:26.678Z,13.16
2022-09-26T23:38:57.492Z,13.15
2022-09-26T23:41:25.978Z,13.16
2022-09-26T23:43:54.139Z,13.15
2022-09-26T23:46:22.603Z,13.12
2022-09-26T23:48:50.986Z,13.08
2022-09-26T23:51:19.622Z,13.08
2022-09-26T23:53:48.744Z,13.03
2022-09-26T23:56:17.138Z,12.98
2022-09-26T23:58:45.870Z,12.97
